KBYH/BYH METAR and TAF weather

Enter ICAO airport designator
Station Type Date Time Source
KBYH METAR 2018/12/13 15:59 UTC NOAA

KBYH 131559Z 16008KT 8SM -RA BKN060 OVC085 11/09 A2999


Station Type Date Time Source
KBYH Decoded METAR 2018/12/13 15:59 UTC NOAA

Eaker Air Force Base, AR, United States (KBYH) 35-58N 089-57W
Dec 13, 2018 - 10:59 AM EST / 2018.12.13 1559 UTC
Wind: from the SSE (160 degrees) at 9 MPH (8 KT):0
Visibility: 8 mile(s):0
Sky conditions: overcast
Weather: light rain
Temperature: 51 F (11 C)
Dew Point: 48 F (9 C)
Relative Humidity: 87%
Pressure (altimeter): 29.99 in. Hg (1015 hPa)
ob: KBYH 131559Z 16008KT 8SM -RA BKN060 OVC085 11/09 A2999
cycle: 16

Station Type Date Time Source
KBYH TAF UTC NOAA

Error!


Example: see airport list